Time;durP1;ratioP1;P1;durP2;ratioP2;P2;SDS_P1;SDS_P2;PMS_P1;PMS_P2;Temp;Humidity;BMP_temperature;BMP_pressure;BME280_temperature;BME280_humidity;BME280_pressure;Samples;Min_cycle;Max_cycle;Signal;HPM_P1;HPM_P2
2021/12/12 00:01:33;;;;;;;8.83;6.30;;;;;;;3.49;90.06;98940.56;5076442;28;20223;-73
2021/12/12 00:04:10;;;;;;;6.53;5.90;;;;;;;3.47;90.95;98950.41;5076336;28;20235;-73
2021/12/12 00:06:39;;;;;;;7.97;5.90;;;;;;;3.47;89.48;98945.16;5077469;28;20191;-73
2021/12/12 00:09:11;;;;;;;8.23;5.70;;;;;;;3.47;89.83;98945.16;5080279;28;20207;-73
2021/12/12 00:11:38;;;;;;;9.10;6.00;;;;;;;3.47;90.05;98953.88;5080325;28;20235;-73
2021/12/12 00:14:17;;;;;;;9.37;5.60;;;;;;;3.46;87.81;98952.22;5080115;28;20651;-74
2021/12/12 00:16:45;;;;;;;11.30;6.30;;;;;;;3.45;87.59;98962.88;5080466;28;20488;-73
2021/12/12 00:19:11;;;;;;;8.30;5.87;;;;;;;3.49;88.75;98967.69;5080998;28;20200;-73
2021/12/12 00:21:41;;;;;;;10.33;6.47;;;;;;;3.49;90.55;98972.13;5079976;28;20642;-73
2021/12/12 00:24:11;;;;;;;8.17;6.10;;;;;;;3.46;90.55;98970.63;5079965;28;20639;-73
2021/12/12 00:26:39;;;;;;;12.37;6.50;;;;;;;3.38;91.23;98969.72;5080289;28;20200;-73
2021/12/12 00:29:07;;;;;;;9.77;6.07;;;;;;;3.38;92.03;98964.44;5079947;28;20280;-73
2021/12/12 00:31:34;;;;;;;8.37;5.90;;;;;;;3.36;91.52;98969.06;5080213;28;20184;-73
2021/12/12 00:34:01;;;;;;;9.93;6.53;;;;;;;3.35;90.06;98970.03;5079758;28;20679;-73
2021/12/12 00:36:28;;;;;;;12.30;6.80;;;;;;;3.40;91.00;98962.53;5079752;28;20569;-73
2021/12/12 00:39:03;;;;;;;7.07;6.10;;;;;;;3.39;90.10;98971.38;5080172;28;20201;-74
2021/12/12 00:41:52;;;;;;;6.47;5.67;;;;;;;3.39;89.79;98971.38;5080081;28;20219;-73
2021/12/12 00:44:20;;;;;;;6.97;5.57;;;;;;;3.43;89.36;98970.09;5079803;28;20274;-73
2021/12/12 00:46:48;;;;;;;8.83;5.53;;;;;;;3.40;87.60;98981.75;5079868;28;20490;-73
2021/12/12 00:49:16;;;;;;;7.40;4.77;;;;;;;3.49;86.48;98982.63;5079846;28;20188;-73
2021/12/12 00:51:44;;;;;;;7.20;5.30;;;;;;;3.49;87.75;98988.72;5079470;28;20185;-73
2021/12/12 00:54:13;;;;;;;7.63;5.20;;;;;;;3.47;86.50;98995.09;5079408;28;20535;-73
2021/12/12 00:56:41;;;;;;;9.43;5.23;;;;;;;3.60;86.55;98988.47;5079770;28;20189;-73
2021/12/12 00:59:07;;;;;;;8.70;6.10;;;;;;;3.57;86.47;98995.84;5079738;28;20196;-73
2021/12/12 01:01:39;;;;;;;10.90;5.90;;;;;;;3.53;88.67;98997.13;5079814;28;20209;-73
2021/12/12 01:04:14;;;;;;;7.90;6.07;;;;;;;3.46;88.57;99003.97;5079548;28;20231;-73
2021/12/12 01:06:40;;;;;;;9.73;5.83;;;;;;;3.49;88.12;98996.63;5079552;28;20192;-73
2021/12/12 01:09:13;;;;;;;9.50;6.13;;;;;;;3.52;89.06;98998.13;5079186;28;20579;-73
2021/12/12 01:11:44;;;;;;;9.23;6.50;;;;;;;3.49;89.17;99008.91;5079028;28;20638;-73
2021/12/12 01:14:16;;;;;;;13.83;7.53;;;;;;;3.43;90.43;99014.78;5079236;28;20228;-73
2021/12/12 01:17:08;;;;;;;12.30;6.80;;;;;;;3.43;91.33;99010.34;5079785;28;20200;-73
2021/12/12 01:19:42;;;;;;;9.37;6.23;;;;;;;3.49;90.31;99015.00;5079268;28;20200;-73
2021/12/12 01:22:16;;;;;;;7.57;6.23;;;;;;;3.44;89.53;99014.63;5079184;28;20213;-73
2021/12/12 01:24:46;;;;;;;10.07;6.73;;;;;;;3.47;89.80;99021.38;5078857;28;20224;-73
2021/12/12 01:27:13;;;;;;;8.03;6.03;;;;;;;3.45;89.45;99018.09;5079397;28;20197;-73
2021/12/12 01:29:41;;;;;;;8.33;6.23;;;;;;;3.45;89.67;99015.47;5079090;28;20236;-73
2021/12/12 01:32:17;;;;;;;9.20;5.47;;;;;;;3.61;87.31;99015.59;5079094;28;20212;-73
2021/12/12 01:34:43;;;;;;;7.63;4.57;;;;;;;3.58;83.80;99013.28;5078945;28;20220;-73
2021/12/12 01:37:34;;;;;;;4.27;3.40;;;;;;;3.50;82.85;99010.56;5079045;28;20189;-73
2021/12/12 01:40:10;;;;;;;7.40;4.57;;;;;;;3.49;85.99;99009.75;5079005;28;20254;-73
2021/12/12 01:42:51;;;;;;;7.63;4.63;;;;;;;3.46;86.97;99003.97;5078848;28;20490;-73
2021/12/12 01:45:22;;;;;;;8.03;5.33;;;;;;;3.45;87.14;99008.41;5078765;28;20217;-73
2021/12/12 01:48:00;;;;;;;5.20;4.40;;;;;;;3.47;85.58;99013.50;5078829;28;20185;-73
2021/12/12 01:50:32;;;;;;;6.80;4.97;;;;;;;3.49;85.45;99014.19;5078715;28;20189;-73
2021/12/12 01:53:01;;;;;;;8.30;5.23;;;;;;;3.46;87.33;99017.09;5078682;28;20188;-73
2021/12/12 01:55:34;;;;;;;6.27;4.70;;;;;;;3.54;83.93;99017.19;5078802;28;20240;-73
2021/12/12 01:58:04;;;;;;;5.37;4.77;;;;;;;3.48;86.00;99025.69;5078576;28;20193;-73
2021/12/12 02:00:36;;;;;;;9.17;5.40;;;;;;;3.47;86.30;99026.63;5078238;28;20603;-73
2021/12/12 02:03:04;;;;;;;5.43;4.93;;;;;;;3.39;87.01;99030.03;5078429;28;20209;-73
2021/12/12 02:05:31;;;;;;;5.07;4.53;;;;;;;3.43;87.73;99020.06;5078388;28;20235;-73
2021/12/12 02:08:02;;;;;;;7.13;5.30;;;;;;;3.44;88.06;99021.69;5078407;28;20196;-73
2021/12/12 02:10:33;;;;;;;7.67;4.60;;;;;;;3.37;85.64;99023.25;5078164;28;20216;-73
2021/12/12 02:13:03;;;;;;;7.43;4.70;;;;;;;3.38;87.40;99032.78;5077984;28;20482;-73
2021/12/12 02:15:32;;;;;;;6.17;4.60;;;;;;;3.33;86.81;99021.91;5078238;28;20220;-73
2021/12/12 02:17:58;;;;;;;5.93;4.13;;;;;;;3.33;87.50;99025.38;5079147;28;20208;-73
2021/12/12 02:20:34;;;;;;;6.00;4.80;;;;;;;3.32;88.14;99028.97;5078399;28;20189;-73
2021/12/12 02:23:11;;;;;;;6.30;4.10;;;;;;;3.33;86.43;99037.66;5078162;28;20579;-73
2021/12/12 02:36:42;;;;;;;5.60;3.43;;;;;;;3.32;83.69;99049.16;5077843;28;20176;-73
2021/12/12 02:39:15;;;;;;;3.90;3.53;;;;;;;3.32;84.02;99052.63;5077697;28;20201;-73
2021/12/12 02:41:46;;;;;;;4.87;3.20;;;;;;;3.31;83.18;99047.53;5077660;28;20244;-73
2021/12/12 02:44:14;;;;;;;4.03;3.30;;;;;;;3.30;83.46;99062.44;5077630;28;20224;-73
2021/12/12 02:46:43;;;;;;;5.07;3.43;;;;;;;3.27;84.10;99040.91;5077690;28;20199;-73
2021/12/12 02:49:24;;;;;;;4.87;3.17;;;;;;;3.26;81.85;99045.31;5077260;28;20231;-73
2021/12/12 02:51:52;;;;;;;5.30;3.10;;;;;;;3.23;82.55;99031.66;5077539;28;20192;-73
2021/12/12 02:54:18;;;;;;;5.60;3.00;;;;;;;3.21;82.24;99041.50;5077476;28;20233;-73
2021/12/12 02:56:48;;;;;;;3.63;2.70;;;;;;;3.24;82.56;99041.19;5078208;28;20207;-73
2021/12/12 02:59:17;;;;;;;5.70;3.43;;;;;;;3.20;82.21;99042.50;5077395;28;20188;-72
2021/12/12 03:01:49;;;;;;;6.87;3.00;;;;;;;3.20;81.56;99045.94;5077293;28;20208;-73
2021/12/12 03:04:16;;;;;;;4.23;3.00;;;;;;;3.18;81.27;99036.53;5077239;28;20224;-73
2021/12/12 03:06:44;;;;;;;3.83;2.23;;;;;;;3.18;80.76;99039.16;5077217;28;20200;-72
2021/12/12 03:09:21;;;;;;;5.33;2.23;;;;;;;3.22;79.53;99027.41;5077174;28;20200;-73
2021/12/12 03:11:51;;;;;;;3.97;2.10;;;;;;;3.16;79.91;99028.00;5076828;28;20208;-73
2021/12/12 03:14:18;;;;;;;2.60;2.23;;;;;;;3.13;79.74;99029.13;5077019;28;20663;-72
2021/12/12 03:16:46;;;;;;;2.20;1.80;;;;;;;3.12;79.60;99031.91;5077351;28;20189;-73
2021/12/12 03:19:13;;;;;;;5.13;2.37;;;;;;;3.13;79.56;99026.50;5077003;28;20189;-73
2021/12/12 03:21:45;;;;;;;2.87;2.10;;;;;;;3.15;80.10;99032.41;5076889;28;20314;-72
2021/12/12 03:24:20;;;;;;;2.77;2.00;;;;;;;3.12;78.58;99030.06;5076606;28;20231;-73
2021/12/12 03:26:54;;;;;;;3.50;1.90;;;;;;;3.17;78.80;99033.06;5076953;28;20283;-73
2021/12/12 03:29:21;;;;;;;4.73;2.53;;;;;;;3.08;81.84;99036.59;5077107;28;20200;-73
2021/12/12 03:31:53;;;;;;;5.77;2.10;;;;;;;3.04;80.98;99026.53;5076826;28;20199;-73
2021/12/12 03:34:23;;;;;;;2.97;2.00;;;;;;;2.94;79.72;99036.28;5076490;28;20678;-72
2021/12/12 03:36:52;;;;;;;3.13;2.10;;;;;;;2.73;82.62;99035.72;5076832;28;20267;-73
2021/12/12 03:39:26;;;;;;;4.10;2.10;;;;;;;2.62;83.32;99038.53;5076790;28;20208;-74
2021/12/12 03:41:57;;;;;;;4.13;2.10;;;;;;;2.56;83.29;99050.44;5076529;28;20208;-72
2021/12/12 03:44:27;;;;;;;3.23;2.27;;;;;;;2.45;83.26;99057.66;5076662;28;20322;-72
2021/12/12 03:46:59;;;;;;;4.33;2.53;;;;;;;2.44;84.08;99063.91;5076695;28;20192;-73
2021/12/12 03:49:26;;;;;;;5.03;2.37;;;;;;;2.50;83.15;99065.94;5076490;28;20584;-72
2021/12/12 03:51:53;;;;;;;5.43;2.57;;;;;;;2.51;83.98;99064.94;5076843;28;20212;-73
2021/12/12 03:54:21;;;;;;;5.13;2.50;;;;;;;2.44;84.31;99064.69;5076537;28;20220;-72
2021/12/12 03:56:47;;;;;;;3.70;2.30;;;;;;;2.34;85.94;99060.47;5076214;28;20208;-73
2021/12/12 03:59:15;;;;;;;5.60;2.87;;;;;;;2.31;85.55;99053.69;5076503;28;20201;-72
2021/12/12 04:01:48;;;;;;;3.70;2.60;;;;;;;2.22;86.35;99053.75;5076695;28;20220;-73
2021/12/12 04:04:21;;;;;;;5.20;2.60;;;;;;;2.12;86.39;99055.56;5076433;28;20526;-72
2021/12/12 04:06:48;;;;;;;2.43;1.90;;;;;;;2.06;87.37;99058.72;5076459;28;20188;-73
2021/12/12 04:09:16;;;;;;;4.90;2.40;;;;;;;1.91;88.31;99052.28;5076628;28;20211;-73
2021/12/12 04:11:47;;;;;;;5.63;2.20;;;;;;;1.82;88.56;99056.59;5076143;28;20216;-73
2021/12/12 04:14:14;;;;;;;3.33;2.30;;;;;;;1.76;88.88;99049.25;5075904;28;20618;-72
2021/12/12 04:16:44;;;;;;;3.33;2.50;;;;;;;1.64;89.84;99052.19;5075988;28;20596;-72
2021/12/12 04:19:11;;;;;;;4.63;2.40;;;;;;;1.54;89.80;99048.75;5076057;28;20191;-73
2021/12/12 04:21:39;;;;;;;5.47;2.67;;;;;;;1.43;90.75;99047.06;5075882;28;20596;-72
2021/12/12 04:24:07;;;;;;;4.93;2.70;;;;;;;1.37;91.36;99046.78;5076023;28;20223;-73
2021/12/12 04:26:42;;;;;;;4.17;2.70;;;;;;;1.30;91.85;99054.38;5076129;28;20220;-72
2021/12/12 04:29:08;;;;;;;3.30;2.43;;;;;;;1.27;92.14;99059.06;5076102;28;20196;-72
2021/12/12 04:31:40;;;;;;;5.37;2.87;;;;;;;1.23;92.46;99055.91;5075793;28;20189;-72
2021/12/12 04:34:08;;;;;;;4.03;2.57;;;;;;;1.17;92.69;99060.84;5075878;28;20227;-72
2021/12/12 04:36:43;;;;;;;3.70;2.63;;;;;;;1.11;93.41;99061.38;5076051;28;20196;-72
2021/12/12 04:39:22;;;;;;;3.40;3.10;;;;;;;1.04;92.41;99068.13;5076052;28;20494;-72
2021/12/12 04:41:51;;;;;;;5.50;3.17;;;;;;;1.06;92.62;99064.41;5075714;28;20281;-72
2021/12/12 04:44:30;;;;;;;4.93;3.30;;;;;;;1.06;93.09;99068.81;5075865;28;20232;-73
2021/12/12 04:49:56;;;;;;;4.40;3.37;;;;;;;0.96;93.50;99081.06;5075629;28;20492;-72
2021/12/12 04:53:06;;;;;;;4.83;3.27;;;;;;;0.95;93.83;99079.41;5076499;28;20199;-72
2021/12/12 04:55:48;;;;;;;3.43;3.07;;;;;;;0.99;93.96;99079.00;5068268;28;20226;-72
2021/12/12 04:58:24;;;;;;;5.57;3.73;;;;;;;0.99;94.59;99083.41;5079401;28;20193;-72
2021/12/12 05:00:56;;;;;;;5.17;3.13;;;;;;;0.95;94.51;99079.41;5079707;28;20189;-72
2021/12/12 05:03:35;;;;;;;6.20;3.70;;;;;;;0.93;94.52;99084.78;5079485;28;20205;-72
2021/12/12 05:06:07;;;;;;;5.23;3.77;;;;;;;0.91;94.89;99085.88;5079527;28;20193;-72
2021/12/12 05:08:43;;;;;;;8.33;4.20;;;;;;;0.93;94.71;99081.31;5079482;28;20189;-72
2021/12/12 05:11:15;;;;;;;4.43;4.03;;;;;;;0.92;95.46;99077.06;5079223;28;20219;-72
2021/12/12 05:13:47;;;;;;;6.23;4.60;;;;;;;1.09;94.32;99071.16;5079320;28;20223;-72
2021/12/12 05:16:17;;;;;;;6.43;4.33;;;;;;;1.17;93.67;99076.56;5079407;28;20189;-72
2021/12/12 05:18:50;;;;;;;4.30;3.90;;;;;;;1.25;92.76;99084.56;5079368;28;20246;-73
2021/12/12 05:21:23;;;;;;;6.17;3.73;;;;;;;1.19;93.44;99080.72;5079293;28;20280;-72
2021/12/12 05:23:52;;;;;;;5.97;4.37;;;;;;;1.20;92.68;99076.28;5079087;28;20236;-73
2021/12/12 05:26:23;;;;;;;8.23;4.20;;;;;;;1.28;91.77;99081.66;5079186;28;20226;-73
2021/12/12 05:28:55;;;;;;;5.90;3.57;;;;;;;1.30;91.31;99087.63;5079182;28;20197;-72
2021/12/12 05:31:22;;;;;;;5.67;3.50;;;;;;;1.41;90.07;99080.47;5079109;28;20196;-72
2021/12/12 05:33:52;;;;;;;5.83;3.80;;;;;;;1.42;90.40;99079.50;5079019;28;20220;-72
2021/12/12 05:36:20;;;;;;;4.17;3.40;;;;;;;1.48;89.34;99076.31;5078943;28;20209;-72
2021/12/12 05:38:47;;;;;;;5.97;3.63;;;;;;;1.38;89.80;99075.47;5078883;28;20196;-72
2021/12/12 05:41:17;;;;;;;5.53;3.63;;;;;;;1.47;88.72;99073.81;5078878;28;20200;-72
2021/12/12 05:43:44;;;;;;;6.03;3.50;;;;;;;1.44;89.05;99074.13;5078696;28;20228;-72
2021/12/12 05:46:15;;;;;;;5.50;3.40;;;;;;;1.46;89.03;99075.63;5077728;28;20197;-72
2021/12/12 05:48:44;;;;;;;4.10;2.70;;;;;;;1.39;89.47;99076.31;5078868;28;20193;-72
2021/12/12 05:51:11;;;;;;;5.93;3.10;;;;;;;1.55;87.97;99087.06;5078627;28;20204;-73
2021/12/12 05:53:37;;;;;;;5.30;3.53;;;;;;;1.54;87.77;99080.19;5078798;28;20215;-72
2021/12/12 05:56:05;;;;;;;4.73;3.17;;;;;;;1.46;88.44;99083.50;5078608;28;20197;-72
2021/12/12 05:58:32;;;;;;;3.30;3.00;;;;;;;1.40;88.57;99080.59;5078243;28;20576;-72
2021/12/12 06:01:02;;;;;;;3.27;2.97;;;;;;;1.54;88.03;99069.69;5078303;28;20604;-72
2021/12/12 06:03:33;;;;;;;4.90;3.27;;;;;;;1.54;88.02;99070.50;5077807;28;20216;-72
2021/12/12 06:06:03;;;;;;;4.00;3.60;;;;;;;1.65;87.05;99077.41;5077973;28;20247;-72
2021/12/12 06:08:31;;;;;;;3.73;3.20;;;;;;;1.53;88.16;99073.28;5078271;28;20200;-72
2021/12/12 06:10:58;;;;;;;4.77;3.30;;;;;;;1.51;88.37;99080.44;5077851;28;20213;-72
2021/12/12 06:13:25;;;;;;;3.50;3.20;;;;;;;1.57;87.46;99088.59;5078197;28;20501;-72
2021/12/12 06:15:54;;;;;;;3.83;3.30;;;;;;;1.64;87.52;99086.25;5078205;28;20209;-72
2021/12/12 06:18:28;;;;;;;5.00;3.30;;;;;;;1.66;87.07;99089.56;5077864;28;20487;-73
2021/12/12 06:20:55;;;;;;;4.37;3.40;;;;;;;1.64;87.16;99094.09;5078108;28;20193;-72
2021/12/12 06:23:22;;;;;;;6.10;3.53;;;;;;;1.61;87.08;99108.31;5077879;28;20221;-72
2021/12/12 06:25:49;;;;;;;4.87;3.30;;;;;;;1.62;87.27;99111.78;5077651;28;20607;-72
2021/12/12 06:28:20;;;;;;;4.07;3.23;;;;;;;1.56;87.56;99110.53;5077992;28;20201;-72
2021/12/12 06:30:46;;;;;;;3.87;3.17;;;;;;;1.52;87.73;99126.66;5077999;28;20212;-72
2021/12/12 06:33:14;;;;;;;4.60;3.60;;;;;;;1.46;88.46;99124.56;5077940;28;20181;-73
2021/12/12 06:35:40;;;;;;;4.43;3.30;;;;;;;1.48;88.20;99117.44;5077527;28;20642;-72
2021/12/12 06:38:10;;;;;;;6.30;3.83;;;;;;;1.40;88.63;99119.88;5077685;28;20189;-72
2021/12/12 06:40:37;;;;;;;4.47;3.50;;;;;;;1.43;88.75;99119.59;5078246;28;20189;-72
2021/12/12 06:43:07;;;;;;;4.90;3.90;;;;;;;1.39;88.92;99120.88;5077424;28;20223;-72
2021/12/12 06:45:35;;;;;;;5.83;3.57;;;;;;;1.53;88.12;99123.09;5077532;28;20216;-72
2021/12/12 06:48:05;;;;;;;3.90;3.37;;;;;;;1.49;88.26;99124.31;5077525;28;20201;-72
2021/12/12 06:50:32;;;;;;;3.57;3.23;;;;;;;1.62;87.51;99135.38;5077423;28;20631;-72
2021/12/12 06:52:59;;;;;;;4.80;3.20;;;;;;;1.66;87.72;99142.00;5077418;28;20193;-72
2021/12/12 06:55:26;;;;;;;4.87;3.67;;;;;;;1.58;87.82;99147.09;5077425;28;20217;-72
2021/12/12 06:57:53;;;;;;;4.00;3.60;;;;;;;1.52;88.24;99140.59;5077991;28;20197;-72
2021/12/12 07:00:24;;;;;;;5.57;3.40;;;;;;;1.50;88.74;99147.78;5077657;28;20189;-73
2021/12/12 07:02:50;;;;;;;5.90;3.97;;;;;;;1.33;90.44;99147.56;5077544;28;20224;-72
2021/12/12 07:05:22;;;;;;;5.37;4.10;;;;;;;1.38;89.75;99143.59;5077162;28;20227;-72
2021/12/12 07:07:50;;;;;;;6.30;4.40;;;;;;;1.46;89.58;99146.38;5077170;28;20197;-72
2021/12/12 07:10:19;;;;;;;5.00;4.10;;;;;;;1.41;89.53;99143.34;5076934;28;20288;-73
2021/12/12 07:12:48;;;;;;;7.17;4.00;;;;;;;1.34;90.20;99144.84;5076687;28;20189;-72
2021/12/12 07:15:16;;;;;;;4.20;3.73;;;;;;;1.20;91.15;99147.00;5076760;28;20224;-73
2021/12/12 07:17:43;;;;;;;5.43;3.80;;;;;;;1.27;90.02;99140.25;5076727;28;20193;-72
2021/12/12 07:20:12;;;;;;;4.43;3.90;;;;;;;1.16;90.55;99138.59;5076970;28;20193;-73
2021/12/12 07:22:39;;;;;;;5.80;3.63;;;;;;;1.15;90.35;99141.31;5076876;28;20217;-72
2021/12/12 07:25:08;;;;;;;6.13;4.93;;;;;;;1.17;90.35;99142.03;5076742;28;20224;-72
2021/12/12 07:27:34;;;;;;;4.77;4.27;;;;;;;1.23;90.44;99141.50;5076950;28;20193;-72
2021/12/12 07:30:02;;;;;;;6.30;4.07;;;;;;;1.20;90.41;99144.38;5076832;28;20184;-72
2021/12/12 07:32:29;;;;;;;4.60;3.83;;;;;;;1.28;90.31;99140.13;5076834;28;20207;-72
2021/12/12 07:34:55;;;;;;;5.23;3.77;;;;;;;1.31;89.81;99139.03;5076624;28;20220;-72
2021/12/12 07:37:22;;;;;;;4.63;3.63;;;;;;;1.35;89.81;99143.06;5076529;28;20193;-72
2021/12/12 07:39:50;;;;;;;5.10;4.13;;;;;;;1.34;89.83;99149.22;5076359;28;20618;-72
2021/12/12 07:42:19;;;;;;;4.43;4.00;;;;;;;1.35;89.65;99145.66;5076761;28;20246;-72
2021/12/12 07:44:47;;;;;;;4.43;3.80;;;;;;;1.38;89.28;99153.25;5076521;28;20275;-72
2021/12/12 07:47:15;;;;;;;4.17;3.77;;;;;;;1.41;89.00;99145.13;5076561;28;20204;-72
2021/12/12 07:49:45;;;;;;;5.00;3.77;;;;;;;1.45;89.80;99149.97;5076542;28;20493;-72
2021/12/12 07:52:17;;;;;;;4.30;3.90;;;;;;;1.59;88.54;99160.06;5076592;28;20537;-72
2021/12/12 07:54:47;;;;;;;5.17;3.80;;;;;;;1.65;88.06;99151.63;5076448;28;20231;-72
2021/12/12 07:57:14;;;;;;;3.97;3.47;;;;;;;1.73;87.23;99138.69;5076539;28;20205;-72
2021/12/12 07:59:41;;;;;;;4.50;3.80;;;;;;;1.84;86.91;99146.41;5076192;28;20608;-72
2021/12/12 08:02:10;;;;;;;4.47;3.63;;;;;;;2.00;86.10;99151.09;5076750;28;20192;-72
2021/12/12 08:04:38;;;;;;;5.17;2.73;;;;;;;2.09;86.72;99147.63;5076295;28;20235;-72
2021/12/12 08:07:10;;;;;;;2.80;2.50;;;;;;;2.24;84.96;99143.59;5076408;28;20193;-72
2021/12/12 08:09:38;;;;;;;3.30;3.00;;;;;;;2.34;84.08;99136.56;5076302;28;20193;-72
2021/12/12 08:12:05;;;;;;;3.23;3.00;;;;;;;2.39;84.41;99136.97;5075973;28;20217;-72
2021/12/12 08:14:33;;;;;;;3.20;2.90;;;;;;;2.48;83.69;99144.00;5076437;28;20232;-72
2021/12/12 08:16:59;;;;;;;3.77;3.17;;;;;;;2.52;83.44;99146.19;5075867;28;20579;-72
2021/12/12 08:19:27;;;;;;;3.27;2.97;;;;;;;2.56;82.86;99146.72;5076380;28;20207;-72
2021/12/12 08:22:03;;;;;;;3.13;2.83;;;;;;;2.72;81.91;99144.34;5076320;28;20210;-72
2021/12/12 08:24:31;;;;;;;4.33;2.70;;;;;;;2.72;81.39;99146.97;5076003;28;20234;-72
2021/12/12 08:26:58;;;;;;;2.87;2.50;;;;;;;2.81;81.48;99148.72;5076044;28;20513;-73
2021/12/12 08:29:26;;;;;;;3.07;2.37;;;;;;;2.86;80.97;99149.97;5080172;28;20596;-72
2021/12/12 08:31:52;;;;;;;2.73;2.30;;;;;;;2.76;80.66;99146.50;5080180;28;20211;-73
2021/12/12 08:34:19;;;;;;;2.80;2.50;;;;;;;2.79;81.60;99148.88;5079812;28;20228;-72
2021/12/12 08:36:50;;;;;;;3.33;2.80;;;;;;;2.84;80.68;99149.25;5079990;28;20200;-72
2021/12/12 08:39:18;;;;;;;3.03;2.57;;;;;;;2.81;80.11;99146.09;5079994;28;20189;-72
2021/12/12 08:41:48;;;;;;;3.50;2.57;;;;;;;2.88;82.13;99149.78;5080386;28;20185;-72
2021/12/12 08:44:17;;;;;;;2.67;2.30;;;;;;;2.82;80.74;99134.63;5079639;28;20240;-73
2021/12/12 08:46:50;;;;;;;3.03;2.73;;;;;;;3.01;79.54;99147.66;5079769;28;20197;-72
2021/12/12 08:49:18;;;;;;;2.47;2.27;;;;;;;2.82;80.02;99153.00;5079576;28;20200;-72
2021/12/12 08:51:51;;;;;;;2.27;2.07;;;;;;;2.85;80.85;99161.41;5079569;28;20201;-72
2021/12/12 08:54:25;;;;;;;3.03;2.00;;;;;;;2.88;80.70;99158.50;5080015;28;20224;-72
2021/12/12 08:57:02;;;;;;;2.20;1.90;;;;;;;2.91;80.57;99163.47;5079592;28;20193;-72
2021/12/12 08:59:30;;;;;;;2.80;2.37;;;;;;;2.83;79.57;99165.16;5079618;28;20284;-72
2021/12/12 09:02:02;;;;;;;2.30;2.10;;;;;;;2.97;80.41;99175.19;5079296;28;20192;-72
2021/12/12 09:04:32;;;;;;;3.43;2.40;;;;;;;2.96;80.38;99170.91;5078745;28;20650;-72
2021/12/12 09:07:14;;;;;;;2.20;2.00;;;;;;;3.00;78.92;99169.66;5078911;28;20188;-73
2021/12/12 09:09:50;;;;;;;3.13;2.33;;;;;;;3.05;80.10;99172.69;5079498;28;20496;-72
2021/12/12 09:12:27;;;;;;;2.10;1.90;;;;;;;3.09;78.86;99168.78;5079054;28;20216;-72
2021/12/12 09:15:07;;;;;;;2.30;2.00;;;;;;;3.13;77.76;99175.41;5079299;28;20231;-72
2021/12/12 09:17:40;;;;;;;2.13;1.70;;;;;;;3.10;77.46;99171.28;5079631;28;20188;-72
2021/12/12 09:20:33;;;;;;;2.50;2.30;;;;;;;3.11;78.10;99172.13;5079273;28;20189;-73
2021/12/12 09:23:06;;;;;;;1.80;1.70;;;;;;;3.14;77.82;99171.81;5078665;28;20555;-72
2021/12/12 09:25:43;;;;;;;1.73;1.63;;;;;;;3.15;78.45;99173.44;5078888;28;20315;-73
2021/12/12 09:28:32;;;;;;;1.70;1.50;;;;;;;3.24;76.81;99169.94;5079151;28;20220;-73
2021/12/12 09:31:06;;;;;;;2.07;1.70;;;;;;;3.23;77.36;99177.03;5075143;28;20215;-73
2021/12/12 09:33:35;;;;;;;1.83;1.70;;;;;;;3.24;77.24;99164.69;5078578;28;20573;-72
2021/12/12 09:36:10;;;;;;;2.73;1.60;;;;;;;3.33;77.49;99158.56;5078885;28;20195;-73
2021/12/12 09:38:48;;;;;;;1.80;1.70;;;;;;;3.49;75.65;99156.97;5078184;28;20588;-72
2021/12/12 09:42:00;;;;;;;1.60;1.50;;;;;;;3.58;76.57;99156.09;5078471;28;20290;-72
2021/12/12 09:44:51;;;;;;;1.70;1.50;;;;;;;3.78;75.70;99152.34;5078724;28;20224;-72
2021/12/12 09:47:57;;;;;;;3.17;1.80;;;;;;;3.71;76.29;99153.09;5078552;28;20189;-72
2021/12/12 09:53:51;;;;;;;2.90;1.80;;;;;;;3.86;75.44;99165.56;5078908;28;20172;-73
2021/12/12 09:56:40;;;;;;;1.87;1.77;;;;;;;4.08;73.38;99153.75;5078542;28;20196;-73
2021/12/12 09:59:40;;;;;;;1.53;1.43;;;;;;;4.16;71.99;99151.19;5078451;28;20189;-72
2021/12/12 10:02:15;;;;;;;1.33;1.20;;;;;;;4.30;72.93;99148.03;5078397;28;20247;-72
2021/12/12 10:05:09;;;;;;;2.87;1.47;;;;;;;4.25;72.83;99145.03;5078159;28;20232;-73
2021/12/12 10:08:10;;;;;;;1.50;1.40;;;;;;;4.30;74.06;99133.03;5078169;28;20537;-72
2021/12/12 10:11:09;;;;;;;1.40;1.30;;;;;;;4.35;74.43;99135.22;5078139;28;20209;-73
2021/12/12 10:13:45;;;;;;;2.20;1.63;;;;;;;4.49;73.63;99126.75;5077820;28;20575;-72
2021/12/12 10:16:37;;;;;;;1.93;1.50;;;;;;;4.56;72.78;99125.97;5078031;28;20224;-73
2021/12/12 10:19:23;;;;;;;2.07;1.50;;;;;;;4.54;72.10;99135.03;5077813;28;20189;-73
2021/12/12 10:22:00;;;;;;;2.27;1.60;;;;;;;4.72;69.90;99127.88;5077812;28;20192;-73
2021/12/12 10:24:40;;;;;;;3.00;1.47;;;;;;;4.78;72.24;99129.88;5077537;28;20270;-73
2021/12/12 10:27:13;;;;;;;1.83;1.33;;;;;;;4.73;70.96;99117.19;5077713;28;20189;-73
2021/12/12 10:30:10;;;;;;;2.00;1.70;;;;;;;4.86;70.63;99122.03;5077578;28;20208;-73
2021/12/12 10:32:52;;;;;;;2.63;1.30;;;;;;;4.59;70.60;99120.41;5070606;28;20201;-73
2021/12/12 10:35:25;;;;;;;3.03;1.63;;;;;;;4.79;70.57;99123.66;5077312;28;20651;-73
2021/12/12 10:38:02;;;;;;;2.17;1.30;;;;;;;4.71;72.20;99131.50;5077566;28;20216;-73
2021/12/12 10:40:31;;;;;;;2.37;1.70;;;;;;;4.86;72.04;99122.03;5077246;28;20189;-73
2021/12/12 10:43:03;;;;;;;2.33;1.30;;;;;;;4.92;71.37;99124.88;5076997;28;20612;-73
2021/12/12 10:45:34;;;;;;;1.40;1.30;;;;;;;4.91;71.20;99119.75;5077319;28;20529;-73
2021/12/12 10:48:14;;;;;;;1.50;1.30;;;;;;;5.18;69.56;99117.75;5077296;28;20185;-73
2021/12/12 10:50:50;;;;;;;2.50;1.27;;;;;;;4.98;68.05;99126.06;5076739;28;20192;-73
2021/12/12 10:53:34;;;;;;;1.00;0.97;;;;;;;5.18;69.28;99130.09;5076664;28;20193;-73
2021/12/12 10:56:19;;;;;;;1.70;1.60;;;;;;;5.21;68.84;99130.59;5077241;28;20197;-73
2021/12/12 10:58:55;;;;;;;2.10;1.50;;;;;;;5.16;67.29;99126.78;5077054;28;20189;-73
2021/12/12 11:01:31;;;;;;;2.00;1.33;;;;;;;5.41;66.82;99123.25;5077044;28;20203;-73
2021/12/12 11:04:23;;;;;;;2.87;1.50;;;;;;;5.49;67.99;99123.28;5076738;28;20228;-73
2021/12/12 11:06:57;;;;;;;3.30;1.00;;;;;;;5.55;66.19;99130.53;5076852;28;20197;-74
2021/12/12 11:09:30;;;;;;;2.00;1.40;;;;;;;5.60;66.29;99115.03;5077063;28;20469;-74
2021/12/12 11:12:13;;;;;;;1.23;1.00;;;;;;;5.91;66.94;99108.19;5076659;28;20212;-73
2021/12/12 11:14:54;;;;;;;3.90;1.30;;;;;;;5.69;67.80;99104.34;5077375;28;20216;-73
2021/12/12 11:17:33;;;;;;;2.40;1.60;;;;;;;5.56;68.29;99116.38;5076852;28;20189;-74
2021/12/12 11:20:06;;;;;;;2.63;1.60;;;;;;;5.69;67.63;99103.50;5076743;28;20211;-73
2021/12/12 11:22:52;;;;;;;2.50;1.40;;;;;;;5.65;67.36;99107.50;5076187;28;20210;-74
2021/12/12 11:25:25;;;;;;;2.50;1.50;;;;;;;5.88;66.22;99103.25;5076386;28;20224;-73
2021/12/12 11:27:59;;;;;;;3.20;1.30;;;;;;;5.66;66.79;99109.94;5076665;28;20200;-73
2021/12/12 11:30:33;;;;;;;2.40;1.53;;;;;;;5.91;67.25;99113.47;5076284;28;20193;-73
2021/12/12 11:33:02;;;;;;;1.37;1.27;;;;;;;5.69;66.86;99108.78;5076592;28;20250;-73
2021/12/12 11:35:30;;;;;;;2.73;1.43;;;;;;;5.60;67.56;99101.84;5076391;28;20309;-73
2021/12/12 11:38:03;;;;;;;2.67;1.60;;;;;;;5.64;67.05;99095.25;5075037;28;20576;-73
2021/12/12 11:40:42;;;;;;;4.10;1.50;;;;;;;5.72;67.11;99092.66;5076135;28;20222;-74
2021/12/12 11:43:24;;;;;;;2.17;1.27;;;;;;;6.02;66.71;99102.59;5076044;28;20188;-74
2021/12/12 11:45:57;;;;;;;5.50;1.80;;;;;;;5.81;65.45;99092.53;5076185;28;20235;-73
2021/12/12 11:48:41;;;;;;;3.67;1.60;;;;;;;5.89;67.09;99100.44;5076263;28;20247;-73
2021/12/12 11:51:13;;;;;;;3.07;1.60;;;;;;;5.98;66.20;99096.00;5076041;28;20188;-73
2021/12/12 11:53:46;;;;;;;1.30;1.20;;;;;;;5.97;65.69;99095.16;5076209;28;20193;-73
2021/12/12 11:56:18;;;;;;;2.80;1.43;;;;;;;5.99;66.09;99095.00;5076080;28;20189;-73
2021/12/12 11:59:08;;;;;;;2.23;1.50;;;;;;;6.04;66.15;99082.97;5076123;28;20197;-73
2021/12/12 12:01:40;;;;;;;3.43;1.30;;;;;;;6.01;66.07;99091.22;5075863;28;20192;-73
2021/12/12 12:04:18;;;;;;;2.73;1.20;;;;;;;5.88;66.44;99087.44;5075961;28;20500;-73
2021/12/12 12:07:11;;;;;;;1.70;1.10;;;;;;;6.00;65.81;99080.81;5075966;28;20185;-73
2021/12/12 12:09:37;;;;;;;1.97;1.30;;;;;;;6.22;65.63;99086.25;5076391;28;20203;-73
2021/12/12 12:12:19;;;;;;;1.73;1.40;;;;;;;6.14;66.42;99088.91;5075977;28;20220;-73
2021/12/12 12:15:03;;;;;;;2.17;1.40;;;;;;;6.16;65.47;99084.28;5075734;28;20213;-73
2021/12/12 12:17:48;;;;;;;1.93;1.20;;;;;;;6.13;66.03;99073.22;5075966;28;20654;-74
2021/12/12 12:20:47;;;;;;;2.30;1.33;;;;;;;6.32;65.32;99075.50;5075895;28;20197;-73
2021/12/12 12:23:20;;;;;;;3.03;1.47;;;;;;;6.40;65.29;99068.41;5075743;28;20204;-73
2021/12/12 12:28:45;;;;;;;2.57;1.47;;;;;;;6.26;65.12;99066.47;5075772;28;20175;-73